Time;durP1;ratioP1;P1;durP2;ratioP2;P2;SDS_P1;SDS_P2;PMS_P1;PMS_P2;Temp;Humidity;BMP_temperature;BMP_pressure;BME280_temperature;BME280_humidity;BME280_pressure;Samples;Min_cycle;Max_cycle;Signal;HPM_P1;HPM_P2
2022/06/14 00:01:42;;;;;;;3.30;1.40;;;14.30;96.30;;;14.50;66.63;101730.31;5106913;29;20083;-67
2022/06/14 00:04:14;;;;;;;3.67;1.23;;;14.30;96.70;;;14.48;66.88;101725.84;5106883;29;20055;-69
2022/06/14 00:06:46;;;;;;;1.73;0.90;;;14.20;96.90;;;14.44;67.19;101723.91;5107161;29;20417;-68
2022/06/14 00:09:18;;;;;;;4.30;1.38;;;14.20;97.30;;;14.39;67.49;101722.03;5106855;29;20052;-68
2022/06/14 00:11:50;;;;;;;1.02;0.90;;;14.20;97.60;;;14.37;67.70;101728.06;5106951;29;20051;-69
2022/06/14 00:14:23;;;;;;;1.33;0.88;;;14.10;98.00;;;14.32;68.42;101722.66;5107197;29;20074;-68
2022/06/14 00:16:55;;;;;;;1.20;0.93;;;14.10;98.30;;;14.30;68.53;101733.94;5107074;29;20051;-71
2022/06/14 00:19:27;;;;;;;1.80;1.13;;;14.10;98.70;;;14.28;68.86;101730.34;5106293;29;20056;-69
2022/06/14 00:22:02;;;;;;;1.50;1.10;;;14.10;98.90;;;14.27;68.87;101742.56;5106712;29;20051;-68
2022/06/14 00:24:34;;;;;;;2.42;1.05;;;14.00;99.20;;;14.27;69.18;101745.19;5106870;29;20048;-69
2022/06/14 00:27:07;;;;;;;2.53;1.13;;;14.00;99.40;;;14.25;69.33;101741.66;5106751;29;20052;-68
2022/06/14 00:29:40;;;;;;;1.80;1.50;;;14.00;99.60;;;14.22;69.40;101749.41;5106454;29;20489;-68
2022/06/14 00:32:12;;;;;;;1.58;1.13;;;14.00;99.70;;;14.18;69.25;101752.75;5105734;29;20062;-69
2022/06/14 00:34:44;;;;;;;1.65;0.93;;;13.90;99.80;;;14.15;69.31;101746.50;5106341;29;20051;-69
2022/06/14 00:37:21;;;;;;;3.08;1.23;;;13.90;99.90;;;14.09;69.40;101750.72;5106241;29;20051;-70
2022/06/14 00:39:53;;;;;;;2.17;1.13;;;13.90;99.90;;;14.06;69.94;101752.31;5106315;29;20135;-69
2022/06/14 00:42:25;;;;;;;1.05;0.90;;;13.80;99.90;;;13.99;69.92;101751.22;5106323;29;20488;-70
2022/06/14 00:45:09;;;;;;;1.92;1.30;;;13.80;99.90;;;13.96;70.40;101758.09;5106420;29;20489;-70
2022/06/14 00:47:46;;;;;;;1.63;0.80;;;13.80;99.90;;;13.93;70.33;101747.47;5106433;29;20485;-69
2022/06/14 00:50:22;;;;;;;1.10;0.73;;;13.70;99.90;;;13.91;70.43;101751.78;5106164;29;20477;-68
2022/06/14 00:53:00;;;;;;;2.05;1.02;;;13.70;99.90;;;13.90;70.67;101752.63;5106263;29;20130;-70
2022/06/14 00:55:40;;;;;;;2.42;1.00;;;13.70;99.90;;;13.88;70.63;101742.06;5105923;29;20061;-70
2022/06/14 00:58:18;;;;;;;1.42;1.13;;;13.70;99.90;;;13.86;70.60;101738.50;5105758;29;20051;-69
2022/06/14 01:00:58;;;;;;;2.65;1.17;;;13.60;99.90;;;13.84;70.67;101738.44;5105667;29;20047;-70
2022/06/14 01:03:37;;;;;;;2.35;0.90;;;13.60;99.90;;;13.81;70.54;101740.94;5106105;29;20143;-69
2022/06/14 01:06:15;;;;;;;2.58;1.10;;;13.60;99.90;;;13.78;70.65;101742.56;5105839;29;20052;-68
2022/06/14 01:08:51;;;;;;;1.20;1.08;;;13.60;99.90;;;13.71;70.85;101730.97;5105772;29;20194;-68
2022/06/14 01:11:29;;;;;;;1.80;1.00;;;13.50;99.90;;;13.69;71.11;101731.72;5105536;29;20052;-68
2022/06/14 01:14:03;;;;;;;1.73;0.90;;;13.50;99.90;;;13.67;71.39;101731.69;5106069;29;20481;-69
2022/06/14 01:16:37;;;;;;;2.35;0.93;;;13.50;99.90;;;13.63;71.35;101728.88;5105838;29;20078;-69
2022/06/14 01:19:16;;;;;;;2.38;1.00;;;13.40;99.90;;;13.60;71.75;101728.78;5105244;29;20485;-69
2022/06/14 01:21:57;;;;;;;3.03;1.52;;;13.40;99.90;;;13.56;71.81;101717.28;5105714;29;20700;-69
2022/06/14 01:24:29;;;;;;;2.03;1.00;;;13.40;99.90;;;13.54;71.84;101718.97;5106071;29;20058;-69
2022/06/14 01:27:04;;;;;;;1.52;1.02;;;13.30;99.90;;;13.52;72.47;101716.31;5105478;29;20531;-69
2022/06/14 01:29:38;;;;;;;1.83;0.90;;;13.30;99.90;;;13.51;72.36;101724.09;5105236;29;20055;-70
2022/06/14 01:32:13;;;;;;;3.08;1.00;;;13.30;99.90;;;13.51;72.24;101727.63;5105350;29;20058;-70
2022/06/14 01:34:52;;;;;;;1.10;1.00;;;13.30;99.90;;;13.53;72.37;101709.34;5105492;29;20055;-68
2022/06/14 01:37:26;;;;;;;2.47;1.05;;;13.30;99.90;;;13.56;71.79;101706.81;5105420;29;20056;-69
2022/06/14 01:39:59;;;;;;;1.83;1.10;;;13.30;99.90;;;13.57;71.60;101713.88;5104909;29;20138;-68
2022/06/14 01:42:50;;;;;;;1.90;1.30;;;13.40;99.90;;;13.57;71.03;101706.91;5105481;29;20617;-69
2022/06/14 01:45:33;;;;;;;1.67;1.02;;;13.40;99.90;;;13.57;70.86;101708.63;5105133;29;20058;-69
2022/06/14 01:48:18;;;;;;;1.70;1.13;;;13.40;99.90;;;13.58;70.75;101703.44;5105454;29;20098;-68
2022/06/14 01:54:09;;;;;;;1.05;0.70;;;13.40;99.90;;;13.53;70.80;101699.75;5105325;29;20676;-68
2022/06/14 01:56:47;;;;;;;2.42;1.17;;;13.30;99.90;;;13.48;70.67;101697.78;5105377;29;20055;-70
2022/06/14 01:59:28;;;;;;;2.25;1.13;;;13.30;99.90;;;13.44;71.05;101702.03;5104855;29;20048;-70
2022/06/14 02:02:07;;;;;;;1.88;1.30;;;13.30;99.90;;;13.41;71.23;101706.25;5104935;29;20063;-70
2022/06/14 02:04:47;;;;;;;3.67;1.30;;;13.20;99.90;;;13.39;71.42;101697.44;5104927;29;20167;-68
2022/06/14 02:07:32;;;;;;;2.13;1.13;;;13.20;99.90;;;13.38;71.59;101707.03;5105299;29;20477;-70
2022/06/14 02:10:11;;;;;;;5.35;1.65;;;13.20;99.90;;;13.35;71.97;101704.28;5104978;29;20416;-69
2022/06/14 02:12:52;;;;;;;3.15;1.15;;;13.20;99.90;;;13.29;72.39;101699.72;5105181;29;20056;-69
2022/06/14 02:15:32;;;;;;;3.58;1.25;;;13.10;99.90;;;13.24;72.37;101703.91;5105367;29;20055;-68
2022/06/14 02:18:12;;;;;;;4.97;1.60;;;13.10;99.90;;;13.19;72.53;101705.41;5103781;29;20481;-68
2022/06/14 02:20:51;;;;;;;3.58;1.10;;;13.00;99.90;;;13.15;73.11;101699.97;5085621;29;20138;-68
2022/06/14 02:23:27;;;;;;;3.22;1.50;;;13.00;99.90;;;13.10;73.13;101707.66;5085529;29;20072;-70
2022/06/14 02:26:06;;;;;;;3.25;1.50;;;12.90;99.90;;;13.03;73.65;101701.28;5085745;29;20056;-69
2022/06/14 02:28:43;;;;;;;3.33;1.30;;;12.90;99.90;;;12.98;73.82;101702.84;5085387;29;20063;-70
2022/06/14 02:31:22;;;;;;;3.28;1.38;;;12.80;99.90;;;12.96;74.27;101701.00;5085224;29;20074;-69
2022/06/14 02:33:59;;;;;;;3.10;1.38;;;12.80;99.90;;;12.92;74.33;101704.34;5085482;29;20056;-69
2022/06/14 02:36:38;;;;;;;2.45;1.45;;;12.80;99.90;;;12.89;74.64;101704.19;5085182;29;20237;-68
2022/06/14 02:39:15;;;;;;;2.13;1.10;;;12.70;99.90;;;12.83;74.62;101699.59;5085301;29;20055;-68
2022/06/14 02:41:56;;;;;;;2.65;1.50;;;12.70;99.90;;;12.79;74.85;101702.94;5085413;29;20108;-70
2022/06/14 02:44:35;;;;;;;1.15;1.02;;;12.70;99.90;;;12.75;75.24;101701.03;5085155;29;20080;-69
2022/06/14 02:47:21;;;;;;;4.05;1.42;;;12.60;99.90;;;12.70;75.38;101706.06;5085420;29;20092;-70
2022/06/14 02:49:57;;;;;;;2.50;1.38;;;12.50;99.90;;;12.65;75.57;101705.03;5084765;29;20048;-68
2022/06/14 02:52:36;;;;;;;2.38;1.17;;;12.50;99.90;;;12.63;75.73;101698.81;5086189;29;20052;-71
2022/06/14 02:55:14;;;;;;;2.95;1.20;;;12.50;99.90;;;12.61;76.19;101702.19;5105112;29;20073;-70
2022/06/14 02:57:56;;;;;;;3.10;1.40;;;12.50;99.90;;;12.58;76.03;101696.81;5091540;29;20084;-68
2022/06/14 03:00:36;;;;;;;3.60;1.40;;;12.40;99.90;;;12.56;76.56;101691.53;5103338;29;20047;-69
2022/06/14 03:03:17;;;;;;;2.25;1.30;;;12.40;99.90;;;12.55;76.27;101692.38;5102749;29;20516;-69
2022/06/14 03:05:56;;;;;;;3.47;1.20;;;12.40;99.90;;;12.54;76.32;101698.44;5100362;29;20052;-68
2022/06/14 03:08:36;;;;;;;2.25;1.27;;;12.40;99.90;;;12.54;76.36;101690.59;5099918;29;20424;-68
2022/06/14 03:11:17;;;;;;;1.40;1.10;;;12.40;99.90;;;12.53;76.54;101688.81;5097522;29;20080;-70
2022/06/14 03:14:01;;;;;;;4.93;1.40;;;12.40;99.90;;;12.54;76.23;101703.69;5104292;29;20050;-68
2022/06/14 03:16:37;;;;;;;3.40;1.33;;;12.40;99.90;;;12.52;76.21;101697.50;5108324;29;20421;-69
2022/06/14 03:19:21;;;;;;;1.55;1.42;;;12.40;99.90;;;12.47;76.49;101697.28;5096134;29;20438;-70
2022/06/14 03:21:58;;;;;;;2.80;1.33;;;12.30;99.90;;;12.47;76.60;101701.63;5096518;29;20135;-69
2022/06/14 03:24:39;;;;;;;4.40;1.40;;;12.30;99.90;;;12.42;76.76;101690.97;5107871;29;20052;-70
2022/06/14 03:27:18;;;;;;;4.20;1.42;;;12.30;99.90;;;12.42;76.77;101696.22;5107941;29;20585;-69
2022/06/14 03:29:59;;;;;;;2.58;1.20;;;12.30;99.90;;;12.41;77.04;101694.44;5100040;29;20390;-68
2022/06/14 03:32:36;;;;;;;1.83;1.25;;;12.30;99.90;;;12.39;76.77;101700.44;5106098;29;20052;-70
2022/06/14 03:35:29;;;;;;;2.33;1.25;;;12.30;99.90;;;12.38;77.02;101698.63;5096945;29;20055;-69
2022/06/14 03:38:05;;;;;;;4.75;1.60;;;12.20;99.90;;;12.38;76.94;101693.38;5107780;29;20055;-70
2022/06/14 03:40:37;;;;;;;3.58;1.50;;;12.20;99.90;;;12.33;76.97;101689.72;5088946;29;20052;-70
2022/06/14 03:43:10;;;;;;;3.40;1.70;;;12.20;99.90;;;12.35;77.19;101698.50;5102133;29;20087;-69
2022/06/14 03:45:57;;;;;;;4.13;1.83;;;12.20;99.90;;;12.39;77.18;101696.09;5103180;29;20054;-68
2022/06/14 03:48:31;;;;;;;3.83;1.52;;;12.20;99.90;;;12.42;76.98;101690.09;5101860;29;20086;-69
2022/06/14 03:51:17;;;;;;;3.20;1.70;;;12.30;99.90;;;12.45;76.59;101705.88;5107267;29;20047;-71
2022/06/14 03:54:12;;;;;;;4.13;1.55;;;12.30;99.90;;;12.45;76.71;101701.59;5107231;29;20052;-68
2022/06/14 03:57:01;;;;;;;4.22;1.58;;;12.30;99.90;;;12.45;76.30;101705.88;5107290;29;20424;-70
2022/06/14 03:59:55;;;;;;;2.55;1.45;;;12.30;99.90;;;12.44;76.48;101699.78;5106832;29;20059;-69
2022/06/14 04:02:57;;;;;;;3.75;1.75;;;12.30;99.90;;;12.44;76.33;101698.88;5106927;29;20057;-69
2022/06/14 04:05:53;;;;;;;3.17;1.73;;;12.30;99.90;;;12.43;76.29;101692.75;5174341;23;20055;-70
2022/06/14 04:08:38;;;;;;;2.75;1.52;;;12.30;99.90;;;12.44;76.60;101693.66;5126680;29;20059;-69
2022/06/14 04:11:22;;;;;;;2.40;1.63;;;12.30;99.90;;;12.46;76.45;101697.25;5126640;28;20047;-69
2022/06/14 04:14:10;;;;;;;4.07;1.58;;;12.30;99.90;;;12.47;76.89;101694.69;5127068;29;20052;-69
2022/06/14 04:16:53;;;;;;;3.47;1.80;;;12.30;99.90;;;12.52;76.66;101694.88;5126578;29;20055;-68
2022/06/14 04:19:51;;;;;;;5.15;1.50;;;12.40;99.90;;;12.56;76.42;101693.25;5126816;28;20410;-69
2022/06/14 04:22:37;;;;;;;5.22;1.67;;;12.40;99.90;;;12.57;76.43;101698.56;5126680;29;20055;-69
2022/06/14 04:25:15;;;;;;;4.47;1.77;;;12.40;99.90;;;12.63;76.52;101698.81;5126831;29;20055;-69
2022/06/14 04:27:53;;;;;;;3.38;1.40;;;12.50;99.90;;;12.68;76.35;101705.13;5126878;29;20057;-69
2022/06/14 04:30:33;;;;;;;5.07;1.73;;;12.50;99.90;;;12.71;76.30;101704.34;5126211;28;20141;-68
2022/06/14 04:33:12;;;;;;;3.70;1.55;;;12.60;99.90;;;12.74;76.19;101705.38;5126740;29;20058;-68
2022/06/14 04:35:51;;;;;;;3.60;1.80;;;12.60;99.90;;;12.77;75.90;101708.09;5126390;29;20062;-69
2022/06/14 04:38:28;;;;;;;4.13;1.80;;;12.60;99.90;;;12.74;75.82;101699.25;5126529;29;20524;-69
2022/06/14 04:41:05;;;;;;;3.30;1.63;;;12.60;99.90;;;12.73;75.51;101697.47;5126408;28;20137;-68
2022/06/14 04:43:44;;;;;;;6.15;1.80;;;12.60;99.90;;;12.77;75.87;101710.72;5126307;29;20058;-69
2022/06/14 04:46:20;;;;;;;3.78;1.73;;;12.60;99.90;;;12.88;75.87;101713.78;5126113;29;20142;-69
2022/06/14 04:49:00;;;;;;;5.90;2.17;;;12.70;99.90;;;13.08;75.89;101709.31;5126376;29;20055;-69
2022/06/14 04:51:41;;;;;;;8.00;2.72;;;12.90;99.90;;;13.37;75.52;101712.22;5126477;28;20054;-69
2022/06/14 04:54:19;;;;;;;7.80;2.83;;;13.20;99.90;;;13.62;75.02;101716.63;5126258;29;20051;-69
2022/06/14 04:56:57;;;;;;;6.55;2.50;;;13.40;99.90;;;14.01;73.71;101717.19;5126419;29;20047;-69
2022/06/14 04:59:38;;;;;;;5.90;2.58;;;13.70;99.90;;;14.40;71.97;101713.31;5126326;28;20499;-69
2022/06/14 05:02:20;;;;;;;5.03;2.42;;;14.10;99.90;;;14.80;70.26;101719.00;5126101;29;20077;-70
2022/06/14 05:04:56;;;;;;;7.65;2.80;;;14.50;99.90;;;15.17;68.61;101716.69;5125961;29;20497;-68
2022/06/14 05:07:34;;;;;;;5.80;2.30;;;14.90;99.90;;;15.42;67.09;101713.09;5126025;29;20057;-68
2022/06/14 05:10:12;;;;;;;5.15;2.50;;;15.10;99.90;;;15.67;66.26;101719.09;5125985;28;20077;-70
2022/06/14 05:12:52;;;;;;;5.25;2.30;;;15.30;99.90;;;15.86;64.94;101716.13;5125750;29;20051;-69
2022/06/14 05:15:32;;;;;;;5.43;2.10;;;15.50;99.60;;;16.10;64.22;101701.84;5126181;29;20051;-70
2022/06/14 05:18:11;;;;;;;7.53;1.80;;;15.70;99.10;;;16.34;63.10;101713.03;5125420;28;20051;-70
2022/06/14 05:20:49;;;;;;;5.28;2.05;;;16.00;98.90;;;16.54;62.19;101714.41;5125224;28;20050;-70
2022/06/14 05:23:31;;;;;;;5.10;2.10;;;16.10;98.10;;;16.69;61.41;101718.28;5125835;29;20548;-70
2022/06/14 05:26:15;;;;;;;5.55;2.55;;;16.30;97.60;;;16.82;60.91;101699.31;5125567;29;20061;-69
2022/06/14 05:29:04;;;;;;;4.45;2.45;;;16.40;97.30;;;17.02;60.42;101707.72;5125781;29;20055;-68
2022/06/14 05:31:44;;;;;;;4.63;1.70;;;16.50;97.00;;;17.24;59.94;101703.81;5125298;28;20057;-68
2022/06/14 05:34:39;;;;;;;5.18;1.98;;;16.70;96.80;;;17.35;58.29;101707.56;5125634;29;20504;-68
2022/06/14 05:37:22;;;;;;;3.47;1.90;;;16.80;95.70;;;17.50;57.43;101707.00;5125630;29;20163;-68
2022/06/14 05:40:10;;;;;;;8.32;1.75;;;17.00;95.10;;;17.72;57.07;101708.34;5124956;28;20138;-68
2022/06/14 05:42:47;;;;;;;4.65;1.80;;;17.20;95.20;;;17.86;56.36;101701.59;5125444;29;20137;-68
2022/06/14 05:45:23;;;;;;;3.58;1.70;;;17.30;94.40;;;18.02;55.61;101703.66;5125204;29;20142;-70
2022/06/14 05:48:03;;;;;;;6.03;1.60;;;17.50;93.70;;;18.13;55.24;101704.78;5125187;29;20106;-68
2022/06/14 05:50:42;;;;;;;6.00;1.90;;;17.60;93.50;;;18.24;55.34;101711.97;5125360;28;20126;-70
2022/06/14 05:53:20;;;;;;;6.80;2.05;;;17.70;93.40;;;18.32;55.27;101715.63;5125423;29;20477;-69
2022/06/14 05:55:59;;;;;;;6.28;1.92;;;17.80;93.50;;;18.42;55.26;101712.31;5125251;29;20062;-69
2022/06/14 05:58:36;;;;;;;4.68;1.83;;;17.80;93.10;;;18.34;55.20;101713.94;5125161;29;20062;-68
2022/06/14 06:01:13;;;;;;;6.63;1.92;;;17.80;92.90;;;18.39;53.65;101714.91;5124919;28;20062;-68
2022/06/14 06:03:52;;;;;;;8.43;2.78;;;17.80;92.00;;;18.34;53.62;101713.94;5125272;29;20407;-68
2022/06/14 06:06:29;;;;;;;5.10;2.20;;;17.80;91.70;;;18.38;53.07;101718.38;5124780;29;20047;-68
2022/06/14 06:09:07;;;;;;;6.72;2.20;;;17.80;91.30;;;18.42;53.31;101718.47;5124933;29;20145;-68
2022/06/14 06:11:48;;;;;;;6.47;2.17;;;17.80;91.30;;;18.61;54.04;101718.78;5124626;28;20047;-68
2022/06/14 06:14:26;;;;;;;7.97;2.28;;;18.00;92.00;;;18.67;52.36;101716.28;5125158;29;20059;-69
2022/06/14 06:17:05;;;;;;;9.02;2.30;;;18.00;90.70;;;18.86;52.25;101712.19;5124611;29;20062;-68
2022/06/14 06:19:47;;;;;;;6.72;2.10;;;18.20;90.70;;;19.14;51.19;101719.63;5124624;28;20420;-68
2022/06/14 06:22:24;;;;;;;5.70;2.20;;;18.40;90.00;;;19.35;50.80;101721.69;5125045;29;20055;-69
2022/06/14 06:25:01;;;;;;;5.15;1.80;;;18.60;89.30;;;19.47;49.53;101713.91;5125081;29;20481;-68
2022/06/14 06:27:40;;;;;;;6.45;2.42;;;18.80;87.20;;;19.59;48.76;101710.56;5124903;29;20130;-69
2022/06/14 06:30:17;;;;;;;6.78;2.05;;;18.90;85.70;;;19.73;48.93;101711.63;5124834;28;20057;-69
2022/06/14 06:32:49;;;;;;;4.82;1.85;;;19.00;85.60;;;19.88;48.43;101718.84;5128452;29;20138;-69
2022/06/14 06:35:24;;;;;;;6.88;2.10;;;19.20;84.50;;;19.94;47.93;101718.03;5128457;29;20138;-67
2022/06/14 06:38:05;;;;;;;7.72;2.17;;;19.30;83.60;;;20.05;48.07;101717.28;5128022;29;20404;-67
2022/06/14 06:41:49;;;;;;;3.42;1.65;;;19.40;83.60;;;20.28;47.64;101719.28;5128103;28;20051;-67
2022/06/14 06:43:35;;;;;;;4.53;1.80;;;19.60;83.20;;;20.49;46.57;101727.44;5121554;29;20070;-68
2022/06/14 06:46:12;;;;;;;3.92;1.90;;;19.80;80.90;;;20.65;46.50;101727.56;5128410;29;20055;-69
2022/06/14 06:48:57;;;;;;;8.77;2.15;;;19.90;80.90;;;20.78;46.73;101727.66;5128742;28;20516;-68
2022/06/14 06:51:37;;;;;;;4.53;1.88;;;20.00;80.80;;;20.99;46.75;101721.63;5128444;28;20047;-68
2022/06/14 06:54:16;;;;;;;7.85;2.22;;;20.20;80.90;;;21.18;46.94;101729.69;5128932;29;20488;-68
2022/06/14 06:56:54;;;;;;;3.78;2.00;;;20.40;81.20;;;21.11;45.60;101729.66;5128769;28;20055;-68
2022/06/14 06:59:33;;;;;;;6.38;1.95;;;20.30;78.70;;;21.11;46.52;101727.00;5128471;28;20051;-68
2022/06/14 07:02:17;;;;;;;7.05;2.13;;;20.40;79.50;;;21.33;46.63;101724.53;5128150;29;20137;-68
2022/06/14 07:05:05;;;;;;;8.75;2.13;;;20.50;80.10;;;21.48;45.79;101729.03;5129692;28;20678;-68
2022/06/14 07:07:56;;;;;;;4.60;1.90;;;20.60;79.00;;;21.63;45.48;101729.09;5130549;28;20047;-69
2022/06/14 07:10:37;;;;;;;6.80;2.08;;;20.80;78.10;;;21.76;45.27;101730.91;5128055;28;20051;-63
2022/06/14 07:13:18;;;;;;;6.78;2.78;;;20.90;77.90;;;21.90;45.27;101731.81;5127624;29;20057;-66
2022/06/14 07:16:00;;;;;;;8.05;2.60;;;21.10;77.60;;;22.01;44.62;101720.38;5127717;29;20126;-65
2022/06/14 07:18:45;;;;;;;8.20;2.45;;;21.10;76.50;;;22.12;44.05;101723.97;5127230;29;20058;-65
2022/06/14 07:21:22;;;;;;;6.95;2.45;;;21.30;75.60;;;22.27;44.50;101718.69;5127693;28;20532;-64
2022/06/14 07:24:01;;;;;;;7.40;2.70;;;21.40;76.20;;;22.45;44.04;101729.31;5127252;29;20051;-64
2022/06/14 07:26:39;;;;;;;9.70;2.45;;;21.60;75.30;;;22.58;43.37;101724.03;5124555;29;20055;-64
2022/06/14 07:29:17;;;;;;;6.18;2.13;;;21.70;74.50;;;22.76;42.93;101724.03;5127738;28;20054;-65
2022/06/14 07:31:56;;;;;;;4.28;2.30;;;21.80;73.80;;;22.93;42.03;101727.56;5138942;28;20051;-63
2022/06/14 07:34:29;;;;;;;6.85;2.60;;;22.00;72.20;;;22.87;41.29;101722.25;5124527;28;20492;-65
2022/06/14 07:37:06;;;;;;;7.70;2.42;;;22.00;70.90;;;22.82;41.97;101715.13;5126946;29;20416;-67
2022/06/14 07:39:44;;;;;;;8.25;2.50;;;21.90;71.40;;;22.89;42.02;101720.50;5139060;28;20082;-64
2022/06/14 07:42:23;;;;;;;6.05;1.98;;;22.00;71.40;;;22.97;42.52;101721.34;5138611;28;20439;-65
2022/06/14 07:45:03;;;;;;;6.88;2.40;;;22.10;72.20;;;23.10;42.47;101718.69;5138257;28;20137;-65
2022/06/14 07:47:44;;;;;;;10.68;2.17;;;22.10;72.20;;;23.18;42.02;101722.19;5138110;28;20054;-65
2022/06/14 07:50:22;;;;;;;5.88;2.00;;;22.20;71.70;;;23.28;42.29;101723.97;5107553;29;20058;-72
2022/06/14 07:53:03;;;;;;;7.00;1.85;;;22.30;71.90;;;23.43;41.76;101715.03;5107233;29;20058;-73
2022/06/14 07:55:41;;;;;;;5.60;2.00;;;22.40;72.10;;;23.58;41.43;101711.41;5107151;29;20052;-73
2022/06/14 07:58:19;;;;;;;5.63;2.00;;;22.40;70.90;;;23.78;41.27;101709.56;5106665;29;20139;-71
2022/06/14 08:01:08;;;;;;;4.47;1.50;;;22.50;70.80;;;24.01;40.40;101713.00;5124053;28;20468;-73
2022/06/14 08:03:48;;;;;;;3.95;1.30;;;22.70;70.20;;;24.32;39.62;101712.75;5136798;28;20487;-71
2022/06/14 08:06:23;;;;;;;4.95;1.30;;;22.80;69.20;;;24.59;39.48;101707.28;5146566;28;20051;-68
2022/06/14 08:09:03;;;;;;;4.97;1.52;;;22.90;69.10;;;25.03;38.74;101707.72;5146753;28;20051;-68
2022/06/14 08:11:42;;;;;;;3.95;1.50;;;23.10;68.80;;;25.46;37.92;101708.16;5146192;28;20057;-67
2022/06/14 08:14:20;;;;;;;3.85;1.25;;;23.30;68.20;;;25.85;37.33;101705.91;5139525;28;20057;-67
2022/06/14 08:16:54;;;;;;;4.53;1.40;;;23.50;67.70;;;26.33;36.46;101708.72;5133459;28;20074;-68
2022/06/14 08:19:33;;;;;;;4.18;1.20;;;23.80;66.80;;;26.91;34.99;101714.00;5130081;28;20051;-67
2022/06/14 08:22:10;;;;;;;3.88;1.60;;;24.10;66.20;;;27.55;33.82;101706.53;5131645;28;20048;-68
2022/06/14 08:24:48;;;;;;;5.07;1.48;;;24.30;64.50;;;28.31;32.58;101710.19;5133228;28;20051;-67
2022/06/14 08:27:27;;;;;;;5.97;1.55;;;24.70;63.50;;;29.09;31.92;101710.88;5134989;28;20133;-69
2022/06/14 08:30:06;;;;;;;4.70;1.52;;;25.10;63.10;;;29.90;30.06;101697.75;5142446;28;20051;-69
2022/06/14 08:32:48;;;;;;;3.95;1.58;;;25.50;61.80;;;30.65;28.59;101710.56;5134762;28;20046;-72
2022/06/14 08:35:27;;;;;;;2.95;1.10;;;25.90;60.10;;;31.83;26.95;101705.34;5146129;28;20086;-72
2022/06/14 08:38:01;;;;;;;;;;;26.70;58.00;;;32.77;25.68;101699.66;5145131;28;20137;-73
2022/06/14 08:41:06;;;;;;;14.23;6.40;;;27.50;56.10;;;33.85;24.23;101701.06;5125400;29;19922;-72
2022/06/14 08:43:44;;;;;;;9.13;3.20;;;28.60;54.40;;;34.61;23.00;101707.22;5126416;29;20412;-72
2022/06/14 08:46:27;;;;;;;6.22;1.77;;;29.40;52.20;;;35.31;22.62;101704.41;5138962;28;20050;-71
2022/06/14 08:49:12;;;;;;;3.70;1.50;;;30.20;51.10;;;35.67;21.79;101692.50;5127144;28;20055;-70
2022/06/14 08:52:14;;;;;;;4.38;1.50;;;30.80;49.60;;;35.92;21.49;101693.84;5140910;28;20085;-70
2022/06/14 08:55:14;;;;;;;4.07;1.33;;;31.20;48.80;;;36.00;20.89;101688.88;5145399;28;20055;-70
2022/06/14 08:58:14;;;;;;;4.75;1.30;;;31.40;47.10;;;35.61;20.68;101685.59;5132960;28;20062;-70
2022/06/14 09:00:58;;;;;;;3.47;1.23;;;31.10;46.70;;;35.90;20.90;101674.91;5125417;28;20054;-69
2022/06/14 09:04:08;;;;;;;5.32;1.48;;;31.10;47.20;;;36.48;20.55;101671.53;5122674;29;20571;-68
2022/06/14 09:07:04;;;;;;;5.43;1.70;;;31.60;46.80;;;36.54;20.27;101670.31;5122349;29;20055;-69
2022/06/14 09:10:07;;;;;;;4.55;1.30;;;31.70;46.20;;;36.37;20.52;101664.00;5120946;28;20059;-69
2022/06/14 09:13:36;;;;;;;4.75;1.38;;;31.70;46.00;;;36.48;19.97;101657.97;5123971;29;20061;-70
2022/06/14 09:16:50;;;;;;;3.58;1.27;;;31.70;45.60;;;36.79;20.31;101659.69;5125301;29;20051;-70
2022/06/14 09:19:35;;;;;;;5.57;1.35;;;32.00;46.70;;;36.50;20.05;101657.88;5125003;28;20047;-69
2022/06/14 09:22:20;;;;;;;6.25;1.55;;;32.00;45.30;;;36.12;20.13;101659.16;5124963;29;20047;-69
2022/06/14 09:25:09;;;;;;;4.25;1.33;;;31.80;45.20;;;35.74;20.83;101658.66;5124994;29;20050;-70
2022/06/14 09:28:20;;;;;;;4.82;1.20;;;31.70;45.10;;;35.16;20.71;101650.19;5124663;29;20055;-70
2022/06/14 09:31:23;;;;;;;3.53;1.30;;;31.50;44.80;;;34.32;22.32;101649.16;5124773;28;20051;-72
2022/06/14 09:34:38;;;;;;;4.65;1.50;;;31.20;46.00;;;33.18;23.54;101640.22;5124459;29;20051;-72
2022/06/14 09:37:40;;;;;;;6.28;1.45;;;30.70;46.40;;;31.67;23.73;101634.09;5123142;29;20054;-70
2022/06/14 09:41:05;;;;;;;4.35;1.23;;;29.80;45.40;;;30.44;26.05;101636.84;5120973;28;20430;-72
2022/06/14 09:44:21;;;;;;;4.60;1.42;;;29.10;47.40;;;29.57;27.26;101635.19;5124716;29;20133;-72
2022/06/14 09:47:29;;;;;;;6.38;1.80;;;28.40;48.40;;;28.89;27.69;101630.88;5073340;29;20054;-71
2022/06/14 09:50:38;;;;;;;5.07;1.40;;;27.80;48.50;;;28.48;28.51;101632.00;5100420;28;20047;-71
2022/06/14 09:54:02;;;;;;;3.78;1.10;;;27.40;49.60;;;28.30;27.87;101637.78;5125239;29;20063;-73
2022/06/14 09:57:02;;;;;;;2.40;1.00;;;27.20;48.80;;;28.15;28.26;101638.19;5106282;29;20496;-72
2022/06/14 10:00:15;;;;;;;2.90;1.05;;;27.00;49.00;;;27.92;28.35;101641.44;5116729;28;20061;-71
2022/06/14 10:03:16;;;;;;;6.75;2.28;;;26.80;49.00;;;27.63;27.82;101629.56;5125114;28;20047;-71
2022/06/14 10:06:09;;;;;;;2.85;1.13;;;26.60;48.30;;;27.39;28.44;101620.31;5142666;23;20504;-70
2022/06/14 10:09:09;;;;;;;4.68;1.30;;;26.50;49.00;;;27.16;28.68;101623.47;5109441;29;20455;-70
2022/06/14 10:12:00;;;;;;;2.33;1.13;;;26.20;48.80;;;27.10;29.16;101612.88;5109338;29;20134;-72
2022/06/14 10:14:52;;;;;;;2.75;1.20;;;26.20;49.50;;;27.02;28.56;101622.84;5109145;29;20058;-71
2022/06/14 10:18:03;;;;;;;2.13;1.00;;;26.10;48.90;;;27.07;29.27;101623.66;5096352;29;20059;-69
2022/06/14 10:20:58;;;;;;;3.85;1.40;;;26.10;49.30;;;27.09;29.79;101621.81;5109087;29;20564;-68
2022/06/14 10:23:52;;;;;;;2.92;1.20;;;26.10;50.20;;;26.91;30.41;101616.81;5109292;29;20062;-68
2022/06/14 10:30:03;;;;;;;3.17;1.20;;;25.90;51.30;;;26.99;30.36;101598.78;5076240;29;20048;-68
2022/06/14 10:33:30;;;;;;;3.80;1.15;;;26.00;51.00;;;26.91;30.62;101603.44;5109031;29;20470;-68
2022/06/14 10:36:34;;;;;;;3.80;1.30;;;26.00;51.10;;;26.90;30.58;101605.22;5108628;29;20412;-70
2022/06/14 10:39:51;;;;;;;3.47;1.25;;;26.00;51.10;;;26.79;30.85;101594.72;5108516;29;20052;-71
2022/06/14 10:42:32;;;;;;;4.93;1.13;;;25.80;51.30;;;26.88;30.59;101598.16;5067765;29;20048;-69
2022/06/14 10:45:13;;;;;;;4.30;1.30;;;25.80;51.10;;;27.01;30.05;101592.53;5108711;29;20055;-69
2022/06/14 10:48:11;;;;;;;4.85;1.33;;;25.90;50.60;;;27.13;30.09;101587.88;5109320;29;20052;-69
2022/06/14 10:50:58;;;;;;;3.47;1.33;;;26.10;50.70;;;27.20;29.99;101593.06;5108431;29;20052;-70
2022/06/14 10:53:43;;;;;;;3.17;1.40;;;26.10;50.70;;;27.11;29.77;101593.22;5108612;29;20480;-70
2022/06/14 10:57:03;;;;;;;7.05;1.77;;;26.10;50.30;;;26.88;29.75;101585.66;5108898;29;20055;-71
2022/06/14 11:00:11;;;;;;;2.17;0.93;;;26.00;50.10;;;26.82;29.92;101579.56;5108532;29;20043;-73
2022/06/14 11:03:26;;;;;;;4.22;1.45;;;25.80;50.20;;;26.90;30.25;101566.91;5108546;29;20048;-72
2022/06/14 11:06:41;;;;;;;3.75;1.10;;;25.90;50.80;;;26.97;30.30;101565.84;5094853;29;20052;-70
2022/06/14 11:09:30;;;;;;;2.50;1.00;;;26.00;51.00;;;26.93;30.43;101566.81;5108169;29;20142;-70
2022/06/14 11:12:28;;;;;;;3.97;1.40;;;26.00;50.90;;;26.94;30.23;101558.78;5108193;29;20048;-72
2022/06/14 11:15:10;;;;;;;2.47;1.10;;;26.00;50.80;;;27.01;29.37;101556.84;5108932;29;20129;-72
2022/06/14 11:18:06;;;;;;;2.75;0.93;;;26.00;49.70;;;27.03;29.41;101558.56;5106800;29;20114;-71
2022/06/14 11:20:52;;;;;;;4.05;1.02;;;26.10;49.70;;;26.92;29.11;101559.72;5107966;29;20130;-70
2022/06/14 11:23:32;;;;;;;3.65;1.17;;;26.00;49.10;;;26.82;28.90;101552.81;5108020;29;20160;-72
2022/06/14 11:26:10;;;;;;;2.83;0.88;;;26.00;48.90;;;26.82;28.96;101548.34;5108071;29;20139;-71
2022/06/14 11:28:51;;;;;;;2.53;1.13;;;25.90;48.80;;;26.91;28.46;101537.44;5109577;29;20086;-73